createdAt,value
2018-06-28T00:00:51.860Z,9.70
2018-06-28T00:03:19.831Z,9.70
2018-06-28T00:05:47.949Z,9.70
2018-06-28T00:08:15.671Z,9.70
2018-06-28T00:10:43.641Z,9.70
2018-06-28T00:13:11.449Z,9.60
2018-06-28T00:15:39.368Z,9.60
2018-06-28T00:18:07.011Z,9.60
2018-06-28T00:20:35.049Z,9.60
2018-06-28T00:23:02.794Z,9.50
2018-06-28T00:27:58.794Z,9.50
2018-06-28T00:30:26.667Z,9.50
2018-06-28T00:32:54.699Z,9.50
2018-06-28T00:35:22.452Z,9.40
2018-06-28T00:37:50.235Z,9.40
2018-06-28T00:40:17.955Z,9.30
2018-06-28T00:45:13.286Z,9.30
2018-06-28T00:47:41.106Z,9.30
2018-06-28T00:50:08.901Z,9.30
2018-06-28T00:55:04.473Z,9.20
2018-06-28T00:57:32.298Z,9.20
2018-06-28T01:02:27.824Z,9.10
2018-06-28T01:07:23.087Z,9.10
2018-06-28T01:09:50.791Z,9.10
2018-06-28T01:12:18.588Z,9.10
2018-06-28T01:14:46.585Z,9.10
2018-06-28T01:17:14.254Z,9.00
2018-06-28T01:19:42.013Z,9.00
2018-06-28T01:22:09.879Z,9.00
2018-06-28T01:24:37.601Z,9.00
2018-06-28T01:27:05.317Z,9.00
2018-06-28T01:29:33.012Z,8.90
2018-06-28T01:34:28.401Z,8.90
2018-06-28T01:36:56.143Z,9.00
2018-06-28T01:39:23.886Z,9.00
2018-06-28T01:42:02.977Z,9.20
2018-06-28T01:44:30.885Z,9.20
2018-06-28T01:46:58.696Z,9.20
2018-06-28T01:49:26.594Z,9.20
2018-06-28T01:51:54.374Z,9.20
2018-06-28T01:54:21.975Z,9.10
2018-06-28T01:56:50.684Z,9.10
2018-06-28T01:59:18.315Z,9.10
2018-06-28T02:01:46.133Z,9.10
2018-06-28T02:04:13.907Z,9.10
2018-06-28T02:06:41.633Z,9.10
2018-06-28T02:11:38.135Z,9.00
2018-06-28T02:14:06.250Z,9.00
2018-06-28T02:16:34.809Z,9.00
2018-06-28T02:19:02.513Z,8.90
2018-06-28T02:21:30.348Z,8.90
2018-06-28T02:23:58.179Z,8.90
2018-06-28T02:26:26.068Z,8.90
2018-06-28T02:28:53.863Z,8.90
2018-06-28T02:36:16.784Z,8.90
2018-06-28T02:38:44.449Z,8.90
2018-06-28T02:41:12.209Z,8.80
2018-06-28T02:43:39.981Z,8.80
2018-06-28T02:46:07.662Z,8.80
2018-06-28T02:48:35.354Z,8.80
2018-06-28T02:53:30.780Z,8.70
2018-06-28T03:03:21.258Z,8.60
2018-06-28T03:05:48.924Z,8.50
2018-06-28T03:08:16.695Z,8.50
2018-06-28T03:10:44.611Z,8.60
2018-06-28T03:18:07.583Z,8.50
2018-06-28T03:20:35.372Z,8.50
2018-06-28T03:23:03.231Z,8.50
2018-06-28T03:27:58.609Z,8.50
2018-06-28T03:30:26.399Z,8.50
2018-06-28T03:32:54.205Z,8.50
2018-06-28T03:35:21.980Z,8.60
2018-06-28T03:37:49.685Z,8.60
2018-06-28T03:40:17.381Z,8.60
2018-06-28T03:42:45.241Z,8.70
2018-06-28T03:47:40.567Z,8.70
2018-06-28T03:50:08.328Z,8.80
2018-06-28T03:52:35.965Z,8.90
2018-06-28T03:55:04.472Z,9.00
2018-06-28T03:57:32.239Z,9.00
2018-06-28T04:02:27.540Z,9.10
2018-06-28T04:07:23.040Z,9.20
2018-06-28T04:09:50.781Z,9.20
2018-06-28T04:12:18.634Z,9.30
2018-06-28T04:14:46.517Z,9.40
2018-06-28T04:17:14.210Z,9.50
2018-06-28T04:19:42.004Z,9.60
2018-06-28T04:22:09.671Z,9.70
2018-06-28T04:24:37.760Z,9.80
2018-06-28T04:27:05.405Z,9.80
2018-06-28T04:29:33.185Z,9.90
2018-06-28T04:32:00.912Z,10.00
2018-06-28T04:41:52.151Z,10.30
2018-06-28T04:46:47.400Z,10.50
2018-06-28T04:49:15.170Z,10.70
2018-06-28T04:51:42.961Z,10.80
2018-06-28T04:54:10.812Z,11.00
2018-06-28T04:56:38.516Z,11.10
2018-06-28T04:59:06.399Z,11.30
2018-06-28T05:04:02.161Z,11.50
2018-06-28T05:06:29.779Z,11.70
2018-06-28T05:08:57.458Z,11.80
2018-06-28T05:13:52.802Z,12.10
2018-06-28T05:16:20.470Z,12.20
2018-06-28T05:18:48.094Z,12.40
2018-06-28T05:23:43.450Z,12.70
2018-06-28T05:26:11.281Z,13.00
2018-06-28T05:31:06.509Z,13.50
2018-06-28T05:36:02.444Z,13.70
2018-06-28T05:38:30.161Z,14.10
2018-06-28T05:40:57.863Z,14.30
2018-06-28T05:43:25.468Z,14.50
2018-06-28T05:45:53.136Z,14.60
2018-06-28T05:48:20.712Z,14.80
2018-06-28T05:50:48.456Z,15.30
2018-06-28T05:53:16.140Z,16.10
2018-06-28T05:55:43.820Z,16.70
2018-06-28T06:00:39.582Z,17.40
2018-06-28T06:03:07.594Z,18.00
2018-06-28T06:05:35.362Z,18.50
2018-06-28T06:08:03.280Z,19.20
2018-06-28T06:10:31.064Z,19.70
2018-06-28T06:12:58.820Z,19.80
2018-06-28T06:15:26.606Z,19.60
2018-06-28T06:17:54.278Z,19.80
2018-06-28T06:20:22.132Z,19.70
2018-06-28T06:22:49.773Z,19.60
2018-06-28T06:25:17.506Z,20.10
2018-06-28T06:27:45.300Z,20.60
2018-06-28T06:30:13.021Z,21.10
2018-06-28T06:35:08.212Z,22.20
2018-06-28T06:37:35.926Z,22.60
2018-06-28T06:40:03.818Z,22.90
2018-06-28T06:42:32.160Z,22.50
2018-06-28T06:44:59.917Z,22.60
2018-06-28T06:47:27.560Z,22.70
2018-06-28T06:49:55.639Z,23.00
2018-06-28T06:52:23.414Z,23.30
2018-06-28T06:54:51.270Z,23.70
2018-06-28T06:57:19.139Z,23.40
2018-06-28T07:02:14.561Z,22.90
2018-06-28T07:04:42.199Z,22.90
2018-06-28T07:07:10.458Z,23.00
2018-06-28T07:09:38.133Z,23.00
2018-06-28T07:12:05.890Z,23.20
2018-06-28T07:14:33.588Z,23.20
2018-06-28T07:17:01.247Z,23.30
2018-06-28T07:21:56.496Z,23.20
2018-06-28T07:24:24.125Z,23.20
2018-06-28T07:29:19.742Z,23.30
2018-06-28T07:34:15.304Z,22.50
2018-06-28T07:36:43.023Z,22.40
2018-06-28T07:39:12.015Z,22.50
2018-06-28T07:41:39.681Z,22.70
2018-06-28T07:46:36.312Z,22.60
2018-06-28T07:49:04.118Z,22.70
2018-06-28T07:56:28.123Z,23.30
2018-06-28T07:58:55.948Z,23.30
2018-06-28T08:01:23.917Z,23.20
2018-06-28T08:03:51.601Z,23.40
2018-06-28T08:06:19.643Z,23.50
2018-06-28T08:08:47.690Z,23.00
2018-06-28T08:11:15.620Z,23.20
2018-06-28T08:16:11.088Z,23.20
2018-06-28T08:18:38.850Z,23.30
2018-06-28T08:21:06.544Z,23.50
2018-06-28T08:23:34.357Z,23.60
2018-06-28T08:26:02.330Z,23.80
2018-06-28T08:28:30.126Z,23.90
2018-06-28T08:30:57.798Z,24.10
2018-06-28T08:33:25.504Z,23.90
2018-06-28T08:35:53.649Z,24.10
2018-06-28T08:38:21.426Z,24.10
2018-06-28T08:43:16.934Z,24.00
2018-06-28T08:45:44.666Z,24.20
2018-06-28T08:48:12.345Z,24.30
2018-06-28T08:50:39.967Z,24.20
2018-06-28T08:53:07.804Z,23.70
2018-06-28T09:00:30.846Z,24.10
2018-06-28T09:02:58.593Z,24.10
2018-06-28T09:05:26.324Z,24.10
2018-06-28T09:07:53.942Z,24.00
2018-06-28T09:10:21.654Z,24.30
2018-06-28T09:12:49.404Z,24.50
2018-06-28T09:15:17.596Z,24.60
2018-06-28T09:17:45.306Z,24.80
2018-06-28T09:20:13.059Z,25.00
2018-06-28T09:22:40.811Z,24.70
2018-06-28T09:27:36.005Z,23.70
2018-06-28T09:30:04.568Z,23.60
2018-06-28T09:34:59.814Z,23.50
2018-06-28T09:37:27.573Z,23.30
2018-06-28T09:39:55.339Z,23.60
2018-06-28T09:42:23.052Z,24.00
2018-06-28T09:44:50.678Z,24.10
2018-06-28T09:47:18.358Z,24.20
2018-06-28T09:49:46.321Z,24.30
2018-06-28T09:52:13.972Z,24.60
2018-06-28T09:54:41.772Z,24.40
2018-06-28T09:57:09.391Z,24.30
2018-06-28T09:59:37.133Z,24.40
2018-06-28T10:02:04.915Z,24.40
2018-06-28T10:04:32.588Z,24.30
2018-06-28T10:07:00.279Z,23.80
2018-06-28T10:09:27.918Z,23.70
2018-06-28T10:11:55.578Z,23.70
2018-06-28T10:14:23.375Z,23.80
2018-06-28T10:16:51.118Z,23.80
2018-06-28T10:19:18.875Z,24.10
2018-06-28T10:21:47.049Z,24.10
2018-06-28T10:24:14.813Z,23.90
2018-06-28T10:26:42.813Z,23.70
2018-06-28T10:31:38.358Z,24.30
2018-06-28T10:34:06.260Z,24.80
2018-06-28T10:36:34.862Z,24.90
2018-06-28T10:39:03.531Z,25.00
2018-06-28T10:41:31.351Z,24.70
2018-06-28T10:43:59.427Z,24.70
2018-06-28T10:46:27.183Z,24.70
2018-06-28T10:51:22.686Z,24.00
2018-06-28T10:53:50.457Z,24.00
2018-06-28T10:56:18.267Z,23.90
2018-06-28T10:58:46.151Z,23.90
2018-06-28T11:01:13.947Z,24.10
2018-06-28T11:03:41.735Z,24.40
2018-06-28T11:08:37.366Z,25.10
2018-06-28T11:11:05.137Z,25.20
2018-06-28T11:13:32.981Z,25.20
2018-06-28T11:16:01.038Z,25.50
2018-06-28T11:18:28.905Z,25.30
2018-06-28T11:20:56.832Z,25.10
2018-06-28T11:23:24.698Z,24.90
2018-06-28T11:25:52.708Z,24.80
2018-06-28T11:28:20.530Z,25.10
2018-06-28T11:30:48.197Z,25.30
2018-06-28T11:33:15.887Z,25.60
2018-06-28T11:35:43.582Z,25.50
2018-06-28T11:40:39.084Z,25.30
2018-06-28T11:43:07.042Z,25.00
2018-06-28T11:45:34.762Z,24.70
2018-06-28T11:48:02.720Z,24.40
2018-06-28T11:50:30.572Z,24.40
2018-06-28T11:52:58.385Z,24.30
2018-06-28T11:55:26.277Z,24.40
2018-06-28T11:57:53.988Z,24.40
2018-06-28T12:00:21.802Z,24.40
2018-06-28T12:02:49.700Z,24.40
2018-06-28T12:05:17.452Z,24.50
2018-06-28T12:07:45.205Z,24.80
2018-06-28T12:10:12.884Z,25.20
2018-06-28T12:17:36.751Z,25.20
2018-06-28T12:20:04.515Z,25.00
2018-06-28T12:22:32.863Z,25.00
2018-06-28T12:25:00.508Z,24.70
2018-06-28T12:27:28.346Z,24.60
2018-06-28T12:29:56.256Z,24.60
2018-06-28T12:32:23.943Z,24.60
2018-06-28T12:34:51.578Z,24.30
2018-06-28T12:37:19.349Z,24.10
2018-06-28T12:39:47.135Z,24.10
2018-06-28T12:42:14.993Z,23.90
2018-06-28T12:44:42.675Z,23.90
2018-06-28T12:47:49.265Z,23.80
2018-06-28T12:50:17.037Z,23.70
2018-06-28T12:56:41.968Z,23.90
2018-06-28T12:59:11.190Z,24.00
2018-06-28T13:01:39.036Z,24.50
2018-06-28T13:06:35.671Z,24.80
2018-06-28T13:09:06.456Z,24.60
2018-06-28T13:11:34.970Z,24.50
2018-06-28T13:14:02.838Z,24.30
2018-06-28T13:16:30.868Z,24.40
2018-06-28T13:18:58.553Z,24.40
2018-06-28T13:21:26.479Z,24.50
2018-06-28T13:23:54.299Z,24.30
2018-06-28T13:26:21.949Z,24.30
2018-06-28T13:28:49.630Z,24.10
2018-06-28T13:31:17.700Z,24.00
2018-06-28T13:33:45.533Z,23.90
2018-06-28T13:36:13.264Z,23.70
2018-06-28T13:38:41.019Z,23.60
2018-06-28T13:46:04.553Z,23.30
2018-06-28T13:48:32.250Z,23.30
2018-06-28T13:51:00.131Z,23.40
2018-06-28T13:53:28.098Z,23.50
2018-06-28T13:55:56.020Z,23.70
2018-06-28T13:58:23.661Z,24.00
2018-06-28T14:00:51.580Z,24.20
2018-06-28T14:03:20.415Z,24.30
2018-06-28T14:05:48.091Z,24.30
2018-06-28T14:08:16.462Z,24.30
2018-06-28T14:10:44.140Z,24.30
2018-06-28T14:13:11.854Z,24.10
2018-06-28T14:15:39.616Z,23.80
2018-06-28T14:25:30.544Z,23.20
2018-06-28T14:27:58.350Z,23.10
2018-06-28T14:30:26.015Z,23.00
2018-06-28T14:32:53.682Z,23.00
2018-06-28T14:35:21.436Z,22.90
2018-06-28T14:37:49.284Z,22.90
2018-06-28T14:42:44.553Z,22.90
2018-06-28T14:45:12.187Z,22.90
2018-06-28T14:47:39.930Z,22.80
2018-06-28T14:52:35.269Z,22.70
2018-06-28T14:55:03.011Z,22.70
2018-06-28T14:59:58.232Z,22.60
2018-06-28T15:09:48.701Z,22.50
2018-06-28T15:12:16.445Z,22.50
2018-06-28T15:17:12.190Z,22.50
2018-06-28T15:19:39.882Z,22.50
2018-06-28T15:22:07.559Z,22.50
2018-06-28T15:24:35.261Z,22.50
2018-06-28T15:29:30.829Z,22.40
2018-06-28T15:31:58.984Z,22.40
2018-06-28T15:34:27.071Z,22.30
2018-06-28T15:36:54.889Z,22.30
2018-06-28T15:41:50.252Z,22.20
2018-06-28T15:44:17.997Z,22.20
2018-06-28T15:46:45.685Z,22.20
2018-06-28T15:49:13.385Z,22.10
2018-06-28T15:51:41.174Z,22.10
2018-06-28T15:56:36.871Z,22.00
2018-06-28T15:59:04.879Z,21.90
2018-06-28T16:01:32.642Z,21.90
2018-06-28T16:04:00.488Z,21.90
2018-06-28T16:06:28.258Z,21.80
2018-06-28T16:11:23.506Z,21.80
2018-06-28T16:13:51.242Z,21.90
2018-06-28T16:18:46.870Z,21.90
2018-06-28T16:23:42.397Z,21.90
2018-06-28T16:28:37.863Z,21.90
2018-06-28T16:31:05.572Z,21.90
2018-06-28T16:33:33.257Z,22.00
2018-06-28T16:38:28.612Z,21.90
2018-06-28T16:40:56.281Z,21.90
2018-06-28T16:43:23.925Z,21.90
2018-06-28T16:45:51.694Z,21.80
2018-06-28T16:48:19.433Z,21.80
2018-06-28T16:53:15.080Z,21.80
2018-06-28T16:55:42.890Z,21.70
2018-06-28T16:58:10.806Z,21.60
2018-06-28T17:00:39.425Z,21.40
2018-06-28T17:03:07.526Z,21.30
2018-06-28T17:05:35.234Z,21.30
2018-06-28T17:08:03.223Z,21.20
2018-06-28T17:10:30.998Z,21.10
2018-06-28T17:12:58.728Z,21.00
2018-06-28T17:15:26.499Z,20.90
2018-06-28T17:17:54.992Z,20.80
2018-06-28T17:20:22.705Z,20.70
2018-06-28T17:22:50.423Z,20.70
2018-06-28T17:25:18.369Z,20.70
2018-06-28T17:27:46.228Z,20.60
2018-06-28T17:30:14.258Z,20.60
2018-06-28T17:32:42.212Z,20.60
2018-06-28T17:35:09.773Z,20.50
2018-06-28T17:37:37.647Z,20.50
2018-06-28T17:40:06.128Z,20.50
2018-06-28T17:42:33.764Z,20.50
2018-06-28T17:45:02.254Z,20.50
2018-06-28T17:47:30.935Z,20.40
2018-06-28T17:49:58.588Z,20.40
2018-06-28T17:52:26.284Z,20.30
2018-06-28T17:54:53.914Z,20.30
2018-06-28T17:57:21.866Z,20.20
2018-06-28T17:59:49.859Z,20.20
2018-06-28T18:02:17.832Z,20.10
2018-06-28T18:04:45.482Z,20.10
2018-06-28T18:07:13.333Z,20.00
2018-06-28T18:09:41.069Z,19.90
2018-06-28T18:12:08.917Z,19.90
2018-06-28T18:17:04.915Z,19.90
2018-06-28T18:19:32.785Z,19.80
2018-06-28T18:22:00.451Z,19.70
2018-06-28T18:24:28.234Z,19.80
2018-06-28T18:26:56.241Z,19.70
2018-06-28T18:29:24.066Z,19.70
2018-06-28T18:31:51.892Z,19.70
2018-06-28T18:34:19.962Z,19.70
2018-06-28T18:36:47.829Z,19.70
2018-06-28T18:39:15.781Z,19.60
2018-06-28T18:41:43.678Z,19.60
2018-06-28T18:44:12.096Z,19.50
2018-06-28T18:49:07.849Z,19.40
2018-06-28T18:51:35.912Z,19.30
2018-06-28T18:54:03.819Z,19.30
2018-06-28T18:56:31.601Z,19.30
2018-06-28T18:59:00.826Z,19.30
2018-06-28T19:06:24.705Z,19.20
2018-06-28T19:08:52.992Z,19.20
2018-06-28T19:11:20.773Z,19.20
2018-06-28T19:13:54.355Z,19.20
2018-06-28T19:16:27.724Z,19.20
2018-06-28T19:18:55.553Z,19.10
2018-06-28T19:21:29.349Z,19.10
2018-06-28T19:23:57.112Z,19.00
2018-06-28T19:26:25.203Z,19.00
2018-06-28T19:28:53.051Z,19.00
2018-06-28T19:31:26.592Z,18.80
2018-06-28T19:33:54.521Z,18.80
2018-06-28T19:36:22.406Z,18.70
2018-06-28T19:38:55.778Z,18.70
2018-06-28T19:41:29.391Z,18.70
2018-06-28T19:43:57.180Z,18.70
2018-06-28T19:46:25.034Z,18.70
2018-06-28T19:48:52.904Z,18.60
2018-06-28T19:51:26.299Z,18.60
2018-06-28T19:53:54.252Z,18.60
2018-06-28T19:56:22.189Z,18.60
2018-06-28T20:01:23.413Z,18.40
2018-06-28T20:03:57.048Z,18.30
2018-06-28T20:06:24.975Z,18.20
2018-06-28T20:08:52.861Z,18.10
2018-06-28T20:11:20.591Z,18.10
2018-06-28T20:13:53.995Z,18.20
2018-06-28T20:16:28.714Z,18.00
2018-06-28T20:19:02.143Z,18.00
2018-06-28T20:21:29.935Z,18.00
2018-06-28T20:23:57.645Z,18.00
2018-06-28T20:26:31.033Z,18.00
2018-06-28T20:29:04.403Z,17.90
2018-06-28T20:31:37.892Z,17.90
2018-06-28T20:34:06.559Z,17.90
2018-06-28T20:39:02.511Z,17.80
2018-06-28T20:41:30.365Z,17.80
2018-06-28T20:46:25.729Z,17.80
2018-06-28T20:48:53.575Z,17.80
2018-06-28T20:51:21.422Z,17.70
2018-06-28T20:53:48.970Z,17.50
2018-06-28T20:58:45.399Z,17.40
2018-06-28T21:01:13.109Z,17.50
2018-06-28T21:03:40.960Z,17.50
2018-06-28T21:06:08.693Z,17.50
2018-06-28T21:08:36.342Z,17.40
2018-06-28T21:11:04.999Z,17.40
2018-06-28T21:13:32.878Z,17.50
2018-06-28T21:16:00.759Z,17.50
2018-06-28T21:18:28.449Z,17.40
2018-06-28T21:20:56.257Z,17.50
2018-06-28T21:23:23.963Z,17.40
2018-06-28T21:25:51.944Z,17.40
2018-06-28T21:28:20.483Z,17.30
2018-06-28T21:30:48.125Z,17.30
2018-06-28T21:33:15.942Z,17.30
2018-06-28T21:35:43.603Z,17.20
2018-06-28T21:38:11.248Z,17.20
2018-06-28T21:40:38.985Z,17.20
2018-06-28T21:43:06.736Z,17.20
2018-06-28T21:45:34.391Z,17.10
2018-06-28T21:48:02.128Z,17.10
2018-06-28T21:50:30.034Z,17.10
2018-06-28T21:52:57.646Z,17.10
2018-06-28T21:55:25.338Z,17.00
2018-06-28T21:57:53.044Z,17.00
2018-06-28T22:00:33.082Z,16.90
2018-06-28T22:03:02.597Z,16.90
2018-06-28T22:05:30.823Z,16.90
2018-06-28T22:07:58.517Z,16.80
2018-06-28T22:10:26.167Z,16.70
2018-06-28T22:12:53.849Z,16.60
2018-06-28T22:15:29.887Z,16.60
2018-06-28T22:17:58.903Z,16.60
2018-06-28T22:20:27.561Z,16.60
2018-06-28T22:22:55.632Z,16.60
2018-06-28T22:25:24.683Z,16.50
2018-06-28T22:27:52.464Z,16.50
2018-06-28T22:30:20.243Z,16.60
2018-06-28T22:32:47.896Z,16.60
2018-06-28T22:35:15.585Z,16.60
2018-06-28T22:37:44.439Z,16.60
2018-06-28T22:47:35.363Z,16.60
2018-06-28T22:50:03.523Z,16.60
2018-06-28T22:52:31.364Z,16.60
2018-06-28T22:54:59.038Z,16.60
2018-06-28T22:57:26.684Z,16.60
2018-06-28T22:59:55.019Z,16.60
2018-06-28T23:04:50.335Z,16.60
2018-06-28T23:07:18.072Z,16.60
2018-06-28T23:09:45.687Z,16.60
2018-06-28T23:12:13.297Z,16.60
2018-06-28T23:14:41.114Z,16.60
2018-06-28T23:17:08.794Z,16.50
2018-06-28T23:19:36.494Z,16.50
2018-06-28T23:22:04.270Z,16.40
2018-06-28T23:29:27.026Z,16.50
2018-06-28T23:31:54.769Z,16.50
2018-06-28T23:34:23.683Z,16.50
2018-06-28T23:36:51.558Z,16.50
2018-06-28T23:39:19.262Z,16.50
2018-06-28T23:41:46.988Z,16.40
2018-06-28T23:44:14.756Z,16.50
2018-06-28T23:46:42.481Z,16.50
2018-06-28T23:49:11.051Z,16.50
2018-06-28T23:51:38.913Z,16.50
2018-06-28T23:54:06.782Z,16.50
2018-06-28T23:56:34.997Z,16.40
2018-06-28T23:59:02.881Z,16.30
